sensor_id;sensor_type;location;lat;lon;timestamp;P1;durP1;ratioP1;P2;durP2;ratioP2
32748;SDS011;19119;52.474;13.710;2023-07-31T00:01:10;3.33;;;1.50;;
32748;SDS011;19119;52.474;13.710;2023-07-31T00:03:35;1.75;;;1.23;;
32748;SDS011;19119;52.474;13.710;2023-07-31T00:06:02;3.65;;;1.35;;
32748;SDS011;19119;52.474;13.710;2023-07-31T00:08:27;4.65;;;1.48;;
32748;SDS011;19119;52.474;13.710;2023-07-31T00:10:53;2.85;;;1.73;;
32748;SDS011;19119;52.474;13.710;2023-07-31T00:13:18;4.95;;;1.58;;
32748;SDS011;19119;52.474;13.710;2023-07-31T00:15:44;5.25;;;1.40;;
32748;SDS011;19119;52.474;13.710;2023-07-31T00:18:10;5.20;;;2.17;;
32748;SDS011;19119;52.474;13.710;2023-07-31T00:20:35;6.70;;;2.60;;
32748;SDS011;19119;52.474;13.710;2023-07-31T00:23:01;3.35;;;1.45;;
32748;SDS011;19119;52.474;13.710;2023-07-31T00:25:26;3.53;;;1.27;;
32748;SDS011;19119;52.474;13.710;2023-07-31T00:27:52;4.50;;;2.03;;
32748;SDS011;19119;52.474;13.710;2023-07-31T00:30:17;3.17;;;1.42;;
32748;SDS011;19119;52.474;13.710;2023-07-31T00:32:45;5.45;;;2.00;;
32748;SDS011;19119;52.474;13.710;2023-07-31T00:35:11;2.92;;;1.60;;
32748;SDS011;19119;52.474;13.710;2023-07-31T00:37:38;5.07;;;1.40;;
32748;SDS011;19119;52.474;13.710;2023-07-31T00:40:03;6.07;;;2.55;;
32748;SDS011;19119;52.474;13.710;2023-07-31T00:42:29;3.40;;;1.70;;
32748;SDS011;19119;52.474;13.710;2023-07-31T00:44:56;4.35;;;1.60;;
32748;SDS011;19119;52.474;13.710;2023-07-31T00:47:21;6.72;;;1.90;;
32748;SDS011;19119;52.474;13.710;2023-07-31T00:49:47;5.07;;;1.90;;
32748;SDS011;19119;52.474;13.710;2023-07-31T00:52:13;5.75;;;1.65;;
32748;SDS011;19119;52.474;13.710;2023-07-31T00:54:38;3.83;;;1.67;;
32748;SDS011;19119;52.474;13.710;2023-07-31T00:57:04;4.90;;;1.73;;
32748;SDS011;19119;52.474;13.710;2023-07-31T00:59:31;2.97;;;1.65;;
32748;SDS011;19119;52.474;13.710;2023-07-31T01:01:57;3.17;;;1.70;;
32748;SDS011;19119;52.474;13.710;2023-07-31T01:04:23;3.50;;;1.83;;
32748;SDS011;19119;52.474;13.710;2023-07-31T01:06:51;4.15;;;1.60;;
32748;SDS011;19119;52.474;13.710;2023-07-31T01:09:32;6.80;;;2.33;;
32748;SDS011;19119;52.474;13.710;2023-07-31T01:12:07;2.50;;;1.70;;
32748;SDS011;19119;52.474;13.710;2023-07-31T01:14:34;5.38;;;1.80;;
32748;SDS011;19119;52.474;13.710;2023-07-31T01:17:00;4.47;;;1.55;;
32748;SDS011;19119;52.474;13.710;2023-07-31T01:19:26;3.05;;;1.58;;
32748;SDS011;19119;52.474;13.710;2023-07-31T01:25:14;5.80;;;1.92;;
32748;SDS011;19119;52.474;13.710;2023-07-31T01:27:51;4.40;;;2.30;;
32748;SDS011;19119;52.474;13.710;2023-07-31T01:30:25;5.88;;;1.92;;
32748;SDS011;19119;52.474;13.710;2023-07-31T01:32:52;5.35;;;2.63;;
32748;SDS011;19119;52.474;13.710;2023-07-31T01:35:20;4.10;;;2.05;;
32748;SDS011;19119;52.474;13.710;2023-07-31T01:37:46;5.88;;;1.98;;
32748;SDS011;19119;52.474;13.710;2023-07-31T01:40:12;8.38;;;2.20;;
32748;SDS011;19119;52.474;13.710;2023-07-31T01:42:37;4.28;;;2.10;;
32748;SDS011;19119;52.474;13.710;2023-07-31T01:45:04;8.85;;;2.40;;
32748;SDS011;19119;52.474;13.710;2023-07-31T01:47:30;5.45;;;2.20;;
32748;SDS011;19119;52.474;13.710;2023-07-31T01:49:55;6.10;;;1.80;;
32748;SDS011;19119;52.474;13.710;2023-07-31T01:52:21;3.55;;;2.00;;
32748;SDS011;19119;52.474;13.710;2023-07-31T01:54:47;4.25;;;1.73;;
32748;SDS011;19119;52.474;13.710;2023-07-31T01:57:13;6.50;;;2.08;;
32748;SDS011;19119;52.474;13.710;2023-07-31T01:59:39;4.57;;;2.50;;
32748;SDS011;19119;52.474;13.710;2023-07-31T02:02:04;5.97;;;2.22;;
32748;SDS011;19119;52.474;13.710;2023-07-31T02:04:30;4.28;;;2.15;;
32748;SDS011;19119;52.474;13.710;2023-07-31T02:06:55;4.45;;;2.05;;
32748;SDS011;19119;52.474;13.710;2023-07-31T02:09:21;7.70;;;1.92;;
32748;SDS011;19119;52.474;13.710;2023-07-31T02:11:48;4.15;;;1.90;;
32748;SDS011;19119;52.474;13.710;2023-07-31T02:14:13;6.53;;;2.83;;
32748;SDS011;19119;52.474;13.710;2023-07-31T02:16:40;8.25;;;2.45;;
32748;SDS011;19119;52.474;13.710;2023-07-31T02:19:08;3.72;;;2.13;;
32748;SDS011;19119;52.474;13.710;2023-07-31T02:21:33;2.85;;;2.20;;
32748;SDS011;19119;52.474;13.710;2023-07-31T02:23:59;6.60;;;2.15;;
32748;SDS011;19119;52.474;13.710;2023-07-31T02:26:25;4.32;;;1.95;;
32748;SDS011;19119;52.474;13.710;2023-07-31T02:28:51;6.70;;;2.75;;
32748;SDS011;19119;52.474;13.710;2023-07-31T02:31:16;5.15;;;2.22;;
32748;SDS011;19119;52.474;13.710;2023-07-31T02:33:42;3.55;;;2.35;;
32748;SDS011;19119;52.474;13.710;2023-07-31T02:36:09;5.75;;;3.45;;
32748;SDS011;19119;52.474;13.710;2023-07-31T02:38:36;6.07;;;2.58;;
32748;SDS011;19119;52.474;13.710;2023-07-31T02:41:01;5.15;;;2.45;;
32748;SDS011;19119;52.474;13.710;2023-07-31T02:43:28;5.47;;;2.63;;
32748;SDS011;19119;52.474;13.710;2023-07-31T02:45:55;4.05;;;2.30;;
32748;SDS011;19119;52.474;13.710;2023-07-31T02:48:21;6.63;;;2.50;;
32748;SDS011;19119;52.474;13.710;2023-07-31T02:50:47;7.18;;;4.18;;
32748;SDS011;19119;52.474;13.710;2023-07-31T02:53:12;3.47;;;2.50;;
32748;SDS011;19119;52.474;13.710;2023-07-31T02:55:38;6.10;;;3.10;;
32748;SDS011;19119;52.474;13.710;2023-07-31T02:58:04;7.43;;;3.83;;
32748;SDS011;19119;52.474;13.710;2023-07-31T03:00:29;7.03;;;3.00;;
32748;SDS011;19119;52.474;13.710;2023-07-31T03:02:56;5.78;;;2.75;;
32748;SDS011;19119;52.474;13.710;2023-07-31T03:05:23;6.90;;;3.03;;
32748;SDS011;19119;52.474;13.710;2023-07-31T03:07:50;9.70;;;3.10;;
32748;SDS011;19119;52.474;13.710;2023-07-31T03:10:15;6.20;;;2.92;;
32748;SDS011;19119;52.474;13.710;2023-07-31T03:12:41;6.72;;;3.40;;
32748;SDS011;19119;52.474;13.710;2023-07-31T03:15:06;7.10;;;3.60;;
32748;SDS011;19119;52.474;13.710;2023-07-31T03:17:32;6.40;;;3.20;;
32748;SDS011;19119;52.474;13.710;2023-07-31T03:19:58;6.00;;;3.13;;
32748;SDS011;19119;52.474;13.710;2023-07-31T03:22:23;6.30;;;3.78;;
32748;SDS011;19119;52.474;13.710;2023-07-31T03:24:49;6.82;;;4.20;;
32748;SDS011;19119;52.474;13.710;2023-07-31T03:27:14;5.60;;;3.15;;
32748;SDS011;19119;52.474;13.710;2023-07-31T03:29:39;5.97;;;3.90;;
32748;SDS011;19119;52.474;13.710;2023-07-31T03:32:05;7.85;;;3.90;;
32748;SDS011;19119;52.474;13.710;2023-07-31T03:34:31;6.63;;;3.85;;
32748;SDS011;19119;52.474;13.710;2023-07-31T03:36:57;6.88;;;3.83;;
32748;SDS011;19119;52.474;13.710;2023-07-31T03:39:23;6.60;;;3.55;;
32748;SDS011;19119;52.474;13.710;2023-07-31T03:41:48;9.50;;;4.38;;
32748;SDS011;19119;52.474;13.710;2023-07-31T03:44:14;8.10;;;3.97;;
32748;SDS011;19119;52.474;13.710;2023-07-31T03:46:39;5.32;;;3.40;;
32748;SDS011;19119;52.474;13.710;2023-07-31T03:49:06;7.40;;;3.72;;
32748;SDS011;19119;52.474;13.710;2023-07-31T03:51:32;8.48;;;3.00;;
32748;SDS011;19119;52.474;13.710;2023-07-31T03:53:57;4.53;;;3.05;;
32748;SDS011;19119;52.474;13.710;2023-07-31T03:56:23;11.63;;;3.85;;
32748;SDS011;19119;52.474;13.710;2023-07-31T03:58:48;8.25;;;3.58;;
32748;SDS011;19119;52.474;13.710;2023-07-31T04:01:14;6.20;;;3.45;;
32748;SDS011;19119;52.474;13.710;2023-07-31T04:03:39;8.00;;;3.80;;
32748;SDS011;19119;52.474;13.710;2023-07-31T04:06:06;8.18;;;3.13;;
32748;SDS011;19119;52.474;13.710;2023-07-31T04:08:32;10.23;;;3.58;;
32748;SDS011;19119;52.474;13.710;2023-07-31T04:10:57;6.70;;;3.15;;
32748;SDS011;19119;52.474;13.710;2023-07-31T04:13:23;9.90;;;3.78;;
32748;SDS011;19119;52.474;13.710;2023-07-31T04:15:50;6.95;;;3.05;;
32748;SDS011;19119;52.474;13.710;2023-07-31T04:18:16;10.27;;;4.30;;
32748;SDS011;19119;52.474;13.710;2023-07-31T04:20:42;8.10;;;3.58;;
32748;SDS011;19119;52.474;13.710;2023-07-31T04:23:07;5.80;;;2.90;;
32748;SDS011;19119;52.474;13.710;2023-07-31T04:25:33;8.18;;;3.47;;
32748;SDS011;19119;52.474;13.710;2023-07-31T04:27:59;5.28;;;3.17;;
32748;SDS011;19119;52.474;13.710;2023-07-31T04:30:26;8.82;;;3.10;;
32748;SDS011;19119;52.474;13.710;2023-07-31T04:32:52;8.00;;;2.95;;
32748;SDS011;19119;52.474;13.710;2023-07-31T04:35:19;6.47;;;3.63;;
32748;SDS011;19119;52.474;13.710;2023-07-31T04:37:46;7.40;;;3.22;;
32748;SDS011;19119;52.474;13.710;2023-07-31T04:40:13;5.78;;;3.00;;
32748;SDS011;19119;52.474;13.710;2023-07-31T04:42:40;6.47;;;3.55;;
32748;SDS011;19119;52.474;13.710;2023-07-31T04:45:07;4.28;;;2.95;;
32748;SDS011;19119;52.474;13.710;2023-07-31T04:47:33;5.80;;;3.33;;
32748;SDS011;19119;52.474;13.710;2023-07-31T04:49:59;9.52;;;2.60;;
32748;SDS011;19119;52.474;13.710;2023-07-31T04:52:24;4.97;;;2.92;;
32748;SDS011;19119;52.474;13.710;2023-07-31T04:54:49;7.68;;;3.08;;
32748;SDS011;19119;52.474;13.710;2023-07-31T04:57:15;15.00;;;4.28;;
32748;SDS011;19119;52.474;13.710;2023-07-31T04:59:41;6.35;;;2.80;;
32748;SDS011;19119;52.474;13.710;2023-07-31T05:02:08;7.75;;;4.32;;
32748;SDS011;19119;52.474;13.710;2023-07-31T05:04:33;7.05;;;3.22;;
32748;SDS011;19119;52.474;13.710;2023-07-31T05:06:59;6.07;;;3.28;;
32748;SDS011;19119;52.474;13.710;2023-07-31T05:09:24;8.32;;;3.13;;
32748;SDS011;19119;52.474;13.710;2023-07-31T05:11:50;9.80;;;2.92;;
32748;SDS011;19119;52.474;13.710;2023-07-31T05:14:16;8.02;;;3.47;;
32748;SDS011;19119;52.474;13.710;2023-07-31T05:16:43;7.90;;;3.30;;
32748;SDS011;19119;52.474;13.710;2023-07-31T05:19:08;6.05;;;2.78;;
32748;SDS011;19119;52.474;13.710;2023-07-31T05:21:35;5.25;;;2.63;;
32748;SDS011;19119;52.474;13.710;2023-07-31T05:24:00;5.25;;;2.42;;
32748;SDS011;19119;52.474;13.710;2023-07-31T05:26:26;4.53;;;2.55;;
32748;SDS011;19119;52.474;13.710;2023-07-31T05:28:51;6.25;;;3.03;;
32748;SDS011;19119;52.474;13.710;2023-07-31T05:31:17;6.88;;;2.97;;
32748;SDS011;19119;52.474;13.710;2023-07-31T05:33:45;6.72;;;2.72;;
32748;SDS011;19119;52.474;13.710;2023-07-31T05:36:11;5.10;;;3.03;;
32748;SDS011;19119;52.474;13.710;2023-07-31T05:38:36;7.22;;;2.67;;
32748;SDS011;19119;52.474;13.710;2023-07-31T05:41:03;6.95;;;2.30;;
32748;SDS011;19119;52.474;13.710;2023-07-31T05:43:29;4.97;;;2.45;;
32748;SDS011;19119;52.474;13.710;2023-07-31T05:45:54;7.97;;;3.42;;
32748;SDS011;19119;52.474;13.710;2023-07-31T05:48:19;6.57;;;2.58;;
32748;SDS011;19119;52.474;13.710;2023-07-31T05:50:45;6.50;;;3.00;;
32748;SDS011;19119;52.474;13.710;2023-07-31T05:53:11;7.18;;;2.47;;
32748;SDS011;19119;52.474;13.710;2023-07-31T05:55:36;9.05;;;2.90;;
32748;SDS011;19119;52.474;13.710;2023-07-31T05:58:03;5.63;;;2.35;;
32748;SDS011;19119;52.474;13.710;2023-07-31T06:00:29;7.95;;;2.75;;
32748;SDS011;19119;52.474;13.710;2023-07-31T06:02:54;8.55;;;3.53;;
32748;SDS011;19119;52.474;13.710;2023-07-31T06:05:20;11.25;;;3.13;;
32748;SDS011;19119;52.474;13.710;2023-07-31T06:07:45;5.78;;;2.38;;
32748;SDS011;19119;52.474;13.710;2023-07-31T06:10:11;9.10;;;2.45;;
32748;SDS011;19119;52.474;13.710;2023-07-31T06:12:38;7.50;;;2.40;;
32748;SDS011;19119;52.474;13.710;2023-07-31T06:15:05;6.57;;;2.60;;
32748;SDS011;19119;52.474;13.710;2023-07-31T06:17:31;7.43;;;2.30;;
32748;SDS011;19119;52.474;13.710;2023-07-31T06:19:58;5.38;;;2.28;;
32748;SDS011;19119;52.474;13.710;2023-07-31T06:22:24;8.63;;;2.63;;
32748;SDS011;19119;52.474;13.710;2023-07-31T06:24:50;5.70;;;2.67;;
32748;SDS011;19119;52.474;13.710;2023-07-31T06:27:15;8.82;;;3.35;;
32748;SDS011;19119;52.474;13.710;2023-07-31T06:29:41;6.30;;;2.47;;
32748;SDS011;19119;52.474;13.710;2023-07-31T06:32:07;6.90;;;2.45;;
32748;SDS011;19119;52.474;13.710;2023-07-31T06:34:34;7.60;;;2.30;;
32748;SDS011;19119;52.474;13.710;2023-07-31T06:37:00;9.52;;;2.60;;
32748;SDS011;19119;52.474;13.710;2023-07-31T06:39:26;7.05;;;2.80;;
32748;SDS011;19119;52.474;13.710;2023-07-31T06:41:52;7.95;;;2.85;;
32748;SDS011;19119;52.474;13.710;2023-07-31T06:44:18;5.25;;;2.72;;
32748;SDS011;19119;52.474;13.710;2023-07-31T06:46:43;5.25;;;2.75;;
32748;SDS011;19119;52.474;13.710;2023-07-31T06:49:08;6.55;;;3.03;;
32748;SDS011;19119;52.474;13.710;2023-07-31T06:51:34;6.03;;;2.58;;
32748;SDS011;19119;52.474;13.710;2023-07-31T06:54:00;6.35;;;2.45;;
32748;SDS011;19119;52.474;13.710;2023-07-31T06:56:26;7.25;;;1.95;;
32748;SDS011;19119;52.474;13.710;2023-07-31T06:58:52;8.02;;;3.10;;
32748;SDS011;19119;52.474;13.710;2023-07-31T07:01:18;6.45;;;2.25;;
32748;SDS011;19119;52.474;13.710;2023-07-31T07:03:44;4.60;;;2.42;;
32748;SDS011;19119;52.474;13.710;2023-07-31T07:06:10;8.35;;;2.63;;
32748;SDS011;19119;52.474;13.710;2023-07-31T07:08:36;6.82;;;2.67;;
32748;SDS011;19119;52.474;13.710;2023-07-31T07:11:01;6.40;;;2.35;;
32748;SDS011;19119;52.474;13.710;2023-07-31T07:13:27;7.50;;;3.05;;
32748;SDS011;19119;52.474;13.710;2023-07-31T07:15:52;6.15;;;2.55;;
32748;SDS011;19119;52.474;13.710;2023-07-31T07:18:18;8.88;;;2.85;;
32748;SDS011;19119;52.474;13.710;2023-07-31T07:20:47;5.63;;;2.53;;
32748;SDS011;19119;52.474;13.710;2023-07-31T07:23:16;6.90;;;2.47;;
32748;SDS011;19119;52.474;13.710;2023-07-31T07:25:42;7.60;;;3.17;;
32748;SDS011;19119;52.474;13.710;2023-07-31T07:28:09;5.30;;;2.65;;
32748;SDS011;19119;52.474;13.710;2023-07-31T07:30:35;8.32;;;2.55;;
32748;SDS011;19119;52.474;13.710;2023-07-31T07:33:00;6.43;;;2.70;;
32748;SDS011;19119;52.474;13.710;2023-07-31T07:35:27;7.68;;;2.88;;
32748;SDS011;19119;52.474;13.710;2023-07-31T07:37:52;6.55;;;2.65;;
32748;SDS011;19119;52.474;13.710;2023-07-31T07:40:20;6.13;;;2.92;;
32748;SDS011;19119;52.474;13.710;2023-07-31T07:42:45;6.95;;;2.53;;
32748;SDS011;19119;52.474;13.710;2023-07-31T07:45:11;5.78;;;2.70;;
32748;SDS011;19119;52.474;13.710;2023-07-31T07:47:37;4.78;;;2.38;;
32748;SDS011;19119;52.474;13.710;2023-07-31T07:50:05;5.18;;;2.35;;
32748;SDS011;19119;52.474;13.710;2023-07-31T07:52:32;5.28;;;2.55;;
32748;SDS011;19119;52.474;13.710;2023-07-31T07:54:58;7.53;;;3.33;;
32748;SDS011;19119;52.474;13.710;2023-07-31T07:57:25;7.35;;;3.20;;
32748;SDS011;19119;52.474;13.710;2023-07-31T07:59:50;6.45;;;2.60;;
32748;SDS011;19119;52.474;13.710;2023-07-31T08:02:16;8.07;;;2.47;;
32748;SDS011;19119;52.474;13.710;2023-07-31T08:04:41;6.13;;;3.15;;
32748;SDS011;19119;52.474;13.710;2023-07-31T08:07:07;8.50;;;3.22;;
32748;SDS011;19119;52.474;13.710;2023-07-31T08:09:32;7.05;;;2.90;;
32748;SDS011;19119;52.474;13.710;2023-07-31T08:11:58;4.65;;;2.33;;
32748;SDS011;19119;52.474;13.710;2023-07-31T08:14:27;5.88;;;2.53;;
32748;SDS011;19119;52.474;13.710;2023-07-31T08:16:52;8.20;;;3.42;;
32748;SDS011;19119;52.474;13.710;2023-07-31T08:19:18;6.28;;;2.72;;
32748;SDS011;19119;52.474;13.710;2023-07-31T08:21:43;5.63;;;2.67;;
32748;SDS011;19119;52.474;13.710;2023-07-31T08:24:09;4.38;;;2.33;;
32748;SDS011;19119;52.474;13.710;2023-07-31T08:26:34;5.65;;;2.78;;
32748;SDS011;19119;52.474;13.710;2023-07-31T08:29:00;5.25;;;2.20;;
32748;SDS011;19119;52.474;13.710;2023-07-31T08:31:25;9.25;;;2.38;;
32748;SDS011;19119;52.474;13.710;2023-07-31T08:33:51;5.05;;;2.38;;
32748;SDS011;19119;52.474;13.710;2023-07-31T08:36:18;5.30;;;2.45;;
32748;SDS011;19119;52.474;13.710;2023-07-31T08:38:45;7.80;;;2.00;;
32748;SDS011;19119;52.474;13.710;2023-07-31T08:41:12;4.43;;;1.80;;
32748;SDS011;19119;52.474;13.710;2023-07-31T08:43:42;6.47;;;1.90;;
32748;SDS011;19119;52.474;13.710;2023-07-31T08:46:09;3.75;;;2.00;;
32748;SDS011;19119;52.474;13.710;2023-07-31T08:48:34;4.97;;;2.13;;
32748;SDS011;19119;52.474;13.710;2023-07-31T08:51:02;6.00;;;2.00;;
32748;SDS011;19119;52.474;13.710;2023-07-31T08:53:27;6.05;;;2.42;;
32748;SDS011;19119;52.474;13.710;2023-07-31T08:55:53;3.97;;;2.03;;
32748;SDS011;19119;52.474;13.710;2023-07-31T08:58:19;6.57;;;2.30;;
32748;SDS011;19119;52.474;13.710;2023-07-31T09:00:46;8.02;;;2.47;;
32748;SDS011;19119;52.474;13.710;2023-07-31T09:03:13;6.53;;;2.17;;
32748;SDS011;19119;52.474;13.710;2023-07-31T09:05:41;7.00;;;2.28;;
32748;SDS011;19119;52.474;13.710;2023-07-31T09:08:09;5.93;;;2.42;;
32748;SDS011;19119;52.474;13.710;2023-07-31T09:10:35;5.95;;;1.98;;
32748;SDS011;19119;52.474;13.710;2023-07-31T09:13:06;3.40;;;2.10;;
32748;SDS011;19119;52.474;13.710;2023-07-31T09:15:32;4.50;;;2.13;;
32748;SDS011;19119;52.474;13.710;2023-07-31T09:17:59;2.72;;;1.65;;
32748;SDS011;19119;52.474;13.710;2023-07-31T09:20:28;4.82;;;2.00;;
32748;SDS011;19119;52.474;13.710;2023-07-31T09:22:54;5.32;;;1.70;;
32748;SDS011;19119;52.474;13.710;2023-07-31T09:25:24;5.15;;;2.33;;
32748;SDS011;19119;52.474;13.710;2023-07-31T09:27:51;3.88;;;1.80;;
32748;SDS011;19119;52.474;13.710;2023-07-31T09:30:22;3.80;;;1.90;;
32748;SDS011;19119;52.474;13.710;2023-07-31T09:32:48;2.80;;;1.77;;
32748;SDS011;19119;52.474;13.710;2023-07-31T09:35:22;3.50;;;1.83;;
32748;SDS011;19119;52.474;13.710;2023-07-31T09:37:53;2.47;;;1.48;;
32748;SDS011;19119;52.474;13.710;2023-07-31T09:40:33;3.40;;;1.42;;
32748;SDS011;19119;52.474;13.710;2023-07-31T09:43:03;4.70;;;1.55;;
32748;SDS011;19119;52.474;13.710;2023-07-31T09:45:33;3.50;;;1.80;;
32748;SDS011;19119;52.474;13.710;2023-07-31T09:48:01;6.88;;;1.40;;
32748;SDS011;19119;52.474;13.710;2023-07-31T09:50:28;3.90;;;1.10;;
32748;SDS011;19119;52.474;13.710;2023-07-31T09:52:54;2.03;;;0.90;;
32748;SDS011;19119;52.474;13.710;2023-07-31T09:55:20;4.20;;;1.20;;
32748;SDS011;19119;52.474;13.710;2023-07-31T09:57:46;1.40;;;0.90;;
32748;SDS011;19119;52.474;13.710;2023-07-31T10:00:14;6.53;;;0.90;;
32748;SDS011;19119;52.474;13.710;2023-07-31T10:02:46;1.67;;;0.90;;
32748;SDS011;19119;52.474;13.710;2023-07-31T10:05:15;1.45;;;0.70;;
32748;SDS011;19119;52.474;13.710;2023-07-31T10:07:42;2.60;;;0.82;;
32748;SDS011;19119;52.474;13.710;2023-07-31T10:10:15;1.70;;;0.80;;
32748;SDS011;19119;52.474;13.710;2023-07-31T10:12:41;1.95;;;1.05;;
32748;SDS011;19119;52.474;13.710;2023-07-31T10:15:09;1.65;;;1.00;;
32748;SDS011;19119;52.474;13.710;2023-07-31T10:17:36;4.75;;;1.83;;
32748;SDS011;19119;52.474;13.710;2023-07-31T10:20:02;2.92;;;1.48;;
32748;SDS011;19119;52.474;13.710;2023-07-31T10:22:30;4.70;;;1.70;;
32748;SDS011;19119;52.474;13.710;2023-07-31T10:24:57;3.97;;;1.75;;
32748;SDS011;19119;52.474;13.710;2023-07-31T10:27:23;3.83;;;1.50;;
32748;SDS011;19119;52.474;13.710;2023-07-31T10:29:49;3.13;;;1.42;;
32748;SDS011;19119;52.474;13.710;2023-07-31T10:32:17;4.85;;;1.75;;
32748;SDS011;19119;52.474;13.710;2023-07-31T10:34:44;4.80;;;1.95;;
32748;SDS011;19119;52.474;13.710;2023-07-31T10:40:02;3.80;;;1.70;;
32748;SDS011;19119;52.474;13.710;2023-07-31T10:42:54;10.10;;;3.08;;
32748;SDS011;19119;52.474;13.710;2023-07-31T10:45:27;5.97;;;2.13;;
32748;SDS011;19119;52.474;13.710;2023-07-31T10:48:00;7.18;;;2.60;;
32748;SDS011;19119;52.474;13.710;2023-07-31T10:50:31;5.60;;;2.65;;
32748;SDS011;19119;52.474;13.710;2023-07-31T10:52:58;6.15;;;2.38;;
32748;SDS011;19119;52.474;13.710;2023-07-31T10:55:26;4.28;;;2.47;;
32748;SDS011;19119;52.474;13.710;2023-07-31T10:57:54;6.45;;;2.53;;
32748;SDS011;19119;52.474;13.710;2023-07-31T11:00:33;4.65;;;2.58;;
32748;SDS011;19119;52.474;13.710;2023-07-31T11:03:02;4.38;;;2.55;;
32748;SDS011;19119;52.474;13.710;2023-07-31T11:08:22;5.05;;;3.10;;
32748;SDS011;19119;52.474;13.710;2023-07-31T11:10:51;5.00;;;2.30;;
32748;SDS011;19119;52.474;13.710;2023-07-31T11:13:26;7.85;;;2.88;;
32748;SDS011;19119;52.474;13.710;2023-07-31T11:15:53;7.38;;;2.50;;
32748;SDS011;19119;52.474;13.710;2023-07-31T11:18:18;4.65;;;2.60;;
32748;SDS011;19119;52.474;13.710;2023-07-31T11:20:44;6.60;;;3.10;;
32748;SDS011;19119;52.474;13.710;2023-07-31T11:23:11;4.57;;;2.03;;
32748;SDS011;19119;52.474;13.710;2023-07-31T11:25:39;4.97;;;2.33;;
32748;SDS011;19119;52.474;13.710;2023-07-31T11:28:10;7.53;;;3.05;;
32748;SDS011;19119;52.474;13.710;2023-07-31T11:30:38;4.53;;;2.30;;
32748;SDS011;19119;52.474;13.710;2023-07-31T11:33:05;10.07;;;3.00;;
32748;SDS011;19119;52.474;13.710;2023-07-31T11:35:32;4.28;;;2.25;;
32748;SDS011;19119;52.474;13.710;2023-07-31T11:37:59;6.18;;;2.92;;
32748;SDS011;19119;52.474;13.710;2023-07-31T11:40:25;5.40;;;2.65;;
32748;SDS011;19119;52.474;13.710;2023-07-31T11:42:57;6.45;;;3.38;;
32748;SDS011;19119;52.474;13.710;2023-07-31T11:45:26;4.45;;;2.28;;
32748;SDS011;19119;52.474;13.710;2023-07-31T11:47:53;5.35;;;2.47;;
32748;SDS011;19119;52.474;13.710;2023-07-31T11:50:20;5.60;;;2.13;;
32748;SDS011;19119;52.474;13.710;2023-07-31T11:52:46;4.45;;;2.25;;
32748;SDS011;19119;52.474;13.710;2023-07-31T11:55:14;6.07;;;2.28;;
32748;SDS011;19119;52.474;13.710;2023-07-31T11:57:41;6.28;;;2.63;;
32748;SDS011;19119;52.474;13.710;2023-07-31T12:00:09;4.38;;;2.25;;
32748;SDS011;19119;52.474;13.710;2023-07-31T12:02:36;4.20;;;2.33;;
32748;SDS011;19119;52.474;13.710;2023-07-31T12:05:04;5.32;;;2.30;;
32748;SDS011;19119;52.474;13.710;2023-07-31T12:07:46;3.38;;;1.98;;
32748;SDS011;19119;52.474;13.710;2023-07-31T12:10:25;5.07;;;2.20;;
32748;SDS011;19119;52.474;13.710;2023-07-31T12:12:56;3.83;;;2.20;;
32748;SDS011;19119;52.474;13.710;2023-07-31T12:15:45;4.20;;;2.25;;
32748;SDS011;19119;52.474;13.710;2023-07-31T12:18:11;4.35;;;2.13;;
32748;SDS011;19119;52.474;13.710;2023-07-31T12:20:42;6.30;;;2.40;;
32748;SDS011;19119;52.474;13.710;2023-07-31T12:23:13;5.10;;;2.42;;
32748;SDS011;19119;52.474;13.710;2023-07-31T12:25:43;6.07;;;2.50;;
32748;SDS011;19119;52.474;13.710;2023-07-31T12:28:09;3.92;;;2.28;;
32748;SDS011;19119;52.474;13.710;2023-07-31T12:30:38;4.78;;;1.95;;
32748;SDS011;19119;52.474;13.710;2023-07-31T12:33:06;5.40;;;2.50;;
32748;SDS011;19119;52.474;13.710;2023-07-31T12:35:38;6.03;;;2.17;;
32748;SDS011;19119;52.474;13.710;2023-07-31T12:38:06;4.35;;;2.00;;
32748;SDS011;19119;52.474;13.710;2023-07-31T12:40:31;8.30;;;2.40;;
32748;SDS011;19119;52.474;13.710;2023-07-31T12:42:57;4.20;;;1.70;;
32748;SDS011;19119;52.474;13.710;2023-07-31T12:45:25;5.50;;;2.00;;
32748;SDS011;19119;52.474;13.710;2023-07-31T12:47:51;4.05;;;2.00;;
32748;SDS011;19119;52.474;13.710;2023-07-31T12:50:16;4.13;;;1.80;;
32748;SDS011;19119;52.474;13.710;2023-07-31T12:52:43;5.97;;;1.95;;
32748;SDS011;19119;52.474;13.710;2023-07-31T12:55:08;3.80;;;1.70;;
32748;SDS011;19119;52.474;13.710;2023-07-31T12:57:35;6.78;;;2.53;;
32748;SDS011;19119;52.474;13.710;2023-07-31T13:00:01;5.20;;;2.35;;
32748;SDS011;19119;52.474;13.710;2023-07-31T13:02:28;3.88;;;1.80;;
32748;SDS011;19119;52.474;13.710;2023-07-31T13:04:53;4.32;;;1.73;;
32748;SDS011;19119;52.474;13.710;2023-07-31T13:07:19;2.22;;;1.30;;
32748;SDS011;19119;52.474;13.710;2023-07-31T13:09:44;5.07;;;1.35;;
32748;SDS011;19119;52.474;13.710;2023-07-31T13:12:10;3.00;;;1.90;;
32748;SDS011;19119;52.474;13.710;2023-07-31T13:14:35;5.68;;;1.58;;
32748;SDS011;19119;52.474;13.710;2023-07-31T13:17:01;3.80;;;1.60;;
32748;SDS011;19119;52.474;13.710;2023-07-31T13:19:26;4.40;;;2.13;;
32748;SDS011;19119;52.474;13.710;2023-07-31T13:21:52;4.38;;;2.00;;
32748;SDS011;19119;52.474;13.710;2023-07-31T13:24:18;4.30;;;1.67;;
32748;SDS011;19119;52.474;13.710;2023-07-31T13:26:43;3.95;;;1.80;;
32748;SDS011;19119;52.474;13.710;2023-07-31T13:29:08;4.25;;;1.88;;
32748;SDS011;19119;52.474;13.710;2023-07-31T13:31:34;6.65;;;1.88;;
32748;SDS011;19119;52.474;13.710;2023-07-31T13:34:00;4.63;;;2.10;;
32748;SDS011;19119;52.474;13.710;2023-07-31T13:36:26;3.42;;;1.70;;
32748;SDS011;19119;52.474;13.710;2023-07-31T13:38:52;4.10;;;1.73;;
32748;SDS011;19119;52.474;13.710;2023-07-31T13:41:17;4.20;;;2.30;;
32748;SDS011;19119;52.474;13.710;2023-07-31T13:43:43;5.93;;;2.30;;
32748;SDS011;19119;52.474;13.710;2023-07-31T13:46:08;5.70;;;2.45;;
32748;SDS011;19119;52.474;13.710;2023-07-31T13:48:35;4.07;;;2.30;;
32748;SDS011;19119;52.474;13.710;2023-07-31T13:51:01;5.20;;;2.22;;
32748;SDS011;19119;52.474;13.710;2023-07-31T13:53:27;9.93;;;2.65;;
32748;SDS011;19119;52.474;13.710;2023-07-31T13:55:52;7.13;;;2.72;;
32748;SDS011;19119;52.474;13.710;2023-07-31T13:58:18;4.18;;;2.08;;
32748;SDS011;19119;52.474;13.710;2023-07-31T14:00:43;4.82;;;2.53;;
32748;SDS011;19119;52.474;13.710;2023-07-31T14:03:10;6.70;;;2.35;;
32748;SDS011;19119;52.474;13.710;2023-07-31T14:05:36;5.10;;;2.47;;
32748;SDS011;19119;52.474;13.710;2023-07-31T14:08:01;6.82;;;2.45;;
32748;SDS011;19119;52.474;13.710;2023-07-31T14:10:27;5.18;;;2.17;;
32748;SDS011;19119;52.474;13.710;2023-07-31T14:12:52;5.32;;;2.28;;
32748;SDS011;19119;52.474;13.710;2023-07-31T14:15:19;10.10;;;2.85;;
32748;SDS011;19119;52.474;13.710;2023-07-31T14:17:44;4.65;;;2.60;;
32748;SDS011;19119;52.474;13.710;2023-07-31T14:20:10;5.57;;;2.40;;
32748;SDS011;19119;52.474;13.710;2023-07-31T14:22:36;11.25;;;3.80;;
32748;SDS011;19119;52.474;13.710;2023-07-31T14:25:02;3.50;;;2.08;;
32748;SDS011;19119;52.474;13.710;2023-07-31T14:27:28;3.38;;;2.22;;
32748;SDS011;19119;52.474;13.710;2023-07-31T14:29:54;5.25;;;2.83;;
32748;SDS011;19119;52.474;13.710;2023-07-31T14:32:19;4.38;;;2.35;;
32748;SDS011;19119;52.474;13.710;2023-07-31T14:34:46;4.45;;;2.47;;
32748;SDS011;19119;52.474;13.710;2023-07-31T14:37:13;5.93;;;2.42;;
32748;SDS011;19119;52.474;13.710;2023-07-31T14:39:38;8.35;;;2.58;;